Time;durP1;ratioP1;P1;durP2;ratioP2;P2;SDS_P1;SDS_P2;PMS_P1;PMS_P2;Temp;Humidity;BMP_temperature;BMP_pressure;BME280_temperature;BME280_humidity;BME280_pressure;Samples;Min_cycle;Max_cycle;Signal;HPM_P1;HPM_P2
2024/03/24 00:01:46;;;;;;;2.50;1.70;;;7.10;99.90;;;;;;5010819;28;20188;-70
2024/03/24 00:04:11;;;;;;;3.00;1.90;;;7.20;99.90;;;;;;5017079;28;20204;-70
2024/03/24 00:06:37;;;;;;;4.23;1.90;;;7.10;99.90;;;;;;5013726;28;20205;-71
2024/03/24 00:09:03;;;;;;;4.07;2.30;;;7.00;99.90;;;;;;5016994;28;20193;-69
2024/03/24 00:11:29;;;;;;;3.00;1.93;;;7.10;99.90;;;;;;5008134;28;20166;-72
2024/03/24 00:13:54;;;;;;;2.60;1.87;;;7.10;99.90;;;;;;5009841;28;20223;-70
2024/03/24 00:16:20;;;;;;;4.53;3.63;;;7.20;99.90;;;;;;5015008;28;20279;-71
2024/03/24 00:18:45;;;;;;;3.07;2.07;;;7.00;99.90;;;;;;5009790;28;20193;-71
2024/03/24 00:21:11;;;;;;;6.70;2.00;;;7.10;99.90;;;;;;5016684;28;20192;-71
2024/03/24 00:23:37;;;;;;;2.33;1.77;;;7.20;99.90;;;;;;5012592;28;20209;-71
2024/03/24 00:26:03;;;;;;;2.60;1.70;;;7.20;99.90;;;;;;5014738;28;20204;-72
2024/03/24 00:28:28;;;;;;;2.40;1.90;;;7.20;99.90;;;;;;5013123;28;20467;-71
2024/03/24 00:30:54;;;;;;;3.77;2.30;;;7.20;99.90;;;;;;5017841;28;20239;-71
2024/03/24 00:33:20;;;;;;;4.37;2.20;;;7.20;99.90;;;;;;5017301;28;20631;-70
2024/03/24 00:35:45;;;;;;;5.57;2.60;;;7.20;99.90;;;;;;5018131;28;20231;-70
2024/03/24 00:38:13;;;;;;;2.70;2.30;;;7.20;99.90;;;;;;5017586;28;20620;-70
2024/03/24 00:40:38;;;;;;;4.40;2.40;;;7.20;99.90;;;;;;5017132;28;20192;-70
2024/03/24 00:43:04;;;;;;;3.27;2.07;;;7.20;99.90;;;;;;5019896;28;20838;-69
2024/03/24 00:45:29;;;;;;;5.17;1.90;;;7.20;99.90;;;;;;5014127;28;20213;-70
2024/03/24 00:47:56;;;;;;;4.53;2.07;;;7.30;99.90;;;;;;5014571;28;20736;-71
2024/03/24 00:50:22;;;;;;;3.03;2.17;;;7.30;99.90;;;;;;5017109;28;20181;-70
2024/03/24 00:52:47;;;;;;;3.83;2.10;;;7.30;99.90;;;;;;5022422;28;20411;-70
2024/03/24 00:55:13;;;;;;;3.70;2.30;;;7.30;99.90;;;;;;5019093;28;21033;-70
2024/03/24 00:57:38;;;;;;;3.70;2.33;;;7.30;99.90;;;;;;5013937;28;20190;-70
2024/03/24 01:00:05;;;;;;;3.80;2.10;;;7.40;99.90;;;;;;5018419;28;20223;-70
2024/03/24 01:02:30;;;;;;;2.53;1.90;;;7.40;99.90;;;;;;5012051;28;20261;-71
2024/03/24 01:04:58;;;;;;;2.60;1.77;;;7.50;99.90;;;;;;5019333;28;20442;-70
2024/03/24 01:07:23;;;;;;;3.03;2.03;;;7.40;99.90;;;;;;5018109;28;20173;-70
2024/03/24 01:09:53;;;;;;;3.47;2.17;;;7.40;99.90;;;;;;5013373;28;20792;-70
2024/03/24 01:12:18;;;;;;;2.37;1.83;;;7.40;99.90;;;;;;5013837;28;20181;-70
2024/03/24 01:14:44;;;;;;;3.50;2.00;;;7.50;99.90;;;;;;5015294;28;20462;-70
2024/03/24 01:17:10;;;;;;;5.40;2.23;;;7.50;99.90;;;;;;5017565;28;20674;-70
2024/03/24 01:19:35;;;;;;;2.73;2.13;;;7.50;99.90;;;;;;5018001;28;20181;-70
2024/03/24 01:22:01;;;;;;;2.67;1.80;;;7.60;99.90;;;;;;5013782;28;20177;-71
2024/03/24 01:24:26;;;;;;;4.43;1.80;;;7.50;99.90;;;;;;5018708;28;20219;-70
2024/03/24 01:26:53;;;;;;;3.10;2.03;;;7.50;99.90;;;;;;5018820;28;20183;-70
2024/03/24 01:29:18;;;;;;;2.63;1.70;;;7.50;99.90;;;;;;5012976;28;20259;-71
2024/03/24 01:31:44;;;;;;;3.07;1.90;;;7.50;99.90;;;;;;5015290;28;20550;-70
2024/03/24 01:34:09;;;;;;;3.17;1.90;;;7.50;99.90;;;;;;5018672;28;20208;-70
2024/03/24 01:36:35;;;;;;;2.70;1.83;;;7.50;99.90;;;;;;5018786;28;20259;-70
2024/03/24 01:39:02;;;;;;;2.50;1.60;;;7.40;99.90;;;;;;5018900;28;20185;-69
2024/03/24 01:41:28;;;;;;;4.30;1.90;;;7.50;99.90;;;;;;5013848;28;20178;-69
2024/03/24 01:43:54;;;;;;;2.93;1.87;;;7.40;99.90;;;;;;5013313;28;22573;-69
2024/03/24 01:46:20;;;;;;;7.27;1.80;;;7.30;99.90;;;;;;5017464;28;20181;-70
2024/03/24 01:48:46;;;;;;;3.43;1.93;;;7.40;99.90;;;;;;5016654;28;20419;-69
2024/03/24 01:51:13;;;;;;;4.57;2.10;;;7.30;99.90;;;;;;5019568;28;20623;-70
2024/03/24 01:53:38;;;;;;;2.57;1.73;;;7.30;99.90;;;;;;5015319;28;20181;-70
2024/03/24 01:56:05;;;;;;;2.90;2.03;;;7.40;99.90;;;;;;5016914;28;20419;-70
2024/03/24 01:58:35;;;;;;;2.47;1.80;;;7.40;99.90;;;;;;5016163;28;20181;-70
2024/03/24 02:01:02;;;;;;;4.40;2.23;;;7.40;99.90;;;;;;5017215;28;20649;-70
2024/03/24 02:03:28;;;;;;;4.03;1.83;;;7.30;99.90;;;;;;5016097;28;20490;-70
2024/03/24 02:05:54;;;;;;;2.10;1.70;;;7.00;99.90;;;;;;5016144;28;20730;-70
2024/03/24 02:08:19;;;;;;;2.83;2.00;;;6.80;99.90;;;;;;5014278;28;20412;-70
2024/03/24 02:10:45;;;;;;;3.00;2.27;;;6.60;99.90;;;;;;5016374;28;20195;-70
2024/03/24 02:13:10;;;;;;;2.97;1.90;;;6.60;99.90;;;;;;5011761;28;20181;-70
2024/03/24 02:15:36;;;;;;;3.37;2.20;;;6.60;99.90;;;;;;5013642;28;20224;-70
2024/03/24 02:18:01;;;;;;;2.73;2.10;;;6.50;99.90;;;;;;5016701;28;22259;-70
2024/03/24 02:20:27;;;;;;;3.00;1.90;;;6.60;99.90;;;;;;5014608;28;20189;-70
2024/03/24 02:22:53;;;;;;;3.00;2.17;;;6.70;99.90;;;;;;5010883;28;20216;-70
2024/03/24 02:25:18;;;;;;;3.17;2.37;;;6.80;99.90;;;;;;5013615;28;20203;-70
2024/03/24 02:27:44;;;;;;;3.23;2.17;;;6.90;99.90;;;;;;5010953;28;20772;-70
2024/03/24 02:30:10;;;;;;;3.57;2.07;;;6.90;99.90;;;;;;5013919;28;20223;-70
2024/03/24 02:32:37;;;;;;;4.13;2.13;;;7.00;99.90;;;;;;5012778;28;20514;-70
2024/03/24 02:35:04;;;;;;;3.93;2.33;;;7.10;99.90;;;;;;5010912;28;20482;-70
2024/03/24 02:37:29;;;;;;;3.40;1.80;;;7.10;99.90;;;;;;5015705;28;21119;-70
2024/03/24 02:39:55;;;;;;;3.43;2.27;;;7.30;99.90;;;;;;5019407;28;20447;-70
2024/03/24 02:42:20;;;;;;;4.77;2.80;;;7.30;99.90;;;;;;5006984;28;20251;-71
2024/03/24 02:44:46;;;;;;;2.57;2.03;;;7.30;99.90;;;;;;5012214;28;20221;-70
2024/03/24 02:47:11;;;;;;;2.80;2.10;;;7.10;99.90;;;;;;5014023;28;20229;-71
2024/03/24 02:49:37;;;;;;;2.33;1.73;;;6.90;99.90;;;;;;5014878;28;20209;-70
2024/03/24 02:52:03;;;;;;;4.93;2.20;;;6.90;99.90;;;;;;5013564;28;20189;-70
2024/03/24 02:54:29;;;;;;;2.83;2.30;;;6.90;99.90;;;;;;5012572;28;20201;-69
2024/03/24 02:56:54;;;;;;;3.03;2.30;;;6.90;99.90;;;;;;5013955;28;20435;-70
2024/03/24 02:59:20;;;;;;;4.00;2.20;;;6.90;99.90;;;;;;5017273;28;20220;-70
2024/03/24 03:01:45;;;;;;;4.07;2.17;;;6.90;99.90;;;;;;5007202;28;20197;-70
2024/03/24 03:04:13;;;;;;;3.40;2.10;;;6.80;99.90;;;;;;5018066;28;20232;-71
2024/03/24 03:06:40;;;;;;;2.53;1.87;;;6.80;99.90;;;;;;5010987;28;20167;-69
2024/03/24 03:09:08;;;;;;;3.97;2.50;;;6.80;99.90;;;;;;5010718;28;20425;-69
2024/03/24 03:11:34;;;;;;;2.87;2.00;;;6.90;99.90;;;;;;5009572;28;20412;-70
2024/03/24 03:14:00;;;;;;;2.30;1.63;;;6.90;99.90;;;;;;5010235;28;21107;-69
2024/03/24 03:16:25;;;;;;;2.70;1.93;;;6.90;99.90;;;;;;5011649;28;20509;-70
2024/03/24 03:18:51;;;;;;;2.40;1.70;;;6.90;99.90;;;;;;5009627;28;20267;-70
2024/03/24 03:21:16;;;;;;;5.47;2.13;;;6.90;99.90;;;;;;5008056;28;20215;-70
2024/03/24 03:23:42;;;;;;;3.53;2.00;;;6.80;99.90;;;;;;5006391;28;20243;-70
2024/03/24 03:26:07;;;;;;;4.40;2.40;;;6.80;99.90;;;;;;5009932;28;20247;-70
2024/03/24 03:28:33;;;;;;;2.97;2.10;;;6.80;99.90;;;;;;5012637;28;20541;-70
2024/03/24 03:30:58;;;;;;;3.53;2.03;;;6.80;99.90;;;;;;5009295;28;20604;-70
2024/03/24 03:33:24;;;;;;;3.40;2.30;;;6.90;99.90;;;;;;5014860;28;20196;-70
2024/03/24 03:35:49;;;;;;;4.80;2.63;;;6.80;99.90;;;;;;5009947;28;20208;-71
2024/03/24 03:38:15;;;;;;;4.17;2.13;;;6.80;99.90;;;;;;5009406;28;20220;-70
2024/03/24 03:40:41;;;;;;;4.57;2.43;;;6.80;99.90;;;;;;5008683;28;20188;-70
2024/03/24 03:43:06;;;;;;;4.40;2.07;;;6.90;99.90;;;;;;5007326;28;20220;-70
2024/03/24 03:45:32;;;;;;;2.60;2.07;;;6.80;99.90;;;;;;5010568;28;20799;-70
2024/03/24 03:47:57;;;;;;;2.57;1.90;;;6.80;99.90;;;;;;5015265;28;20176;-70
2024/03/24 03:50:23;;;;;;;3.90;2.07;;;6.80;99.90;;;;;;5014440;28;20185;-70
2024/03/24 03:52:49;;;;;;;3.20;2.13;;;6.80;99.90;;;;;;5013162;28;20542;-70
2024/03/24 03:55:15;;;;;;;3.53;2.37;;;6.80;99.90;;;;;;5011668;28;20219;-70
2024/03/24 03:57:42;;;;;;;3.67;2.30;;;6.80;99.90;;;;;;5012750;28;20427;-70
2024/03/24 04:00:10;;;;;;;4.23;1.83;;;6.80;99.90;;;;;;5011238;28;20432;-70
2024/03/24 04:02:40;;;;;;;3.07;2.10;;;6.80;99.90;;;;;;5009310;28;20432;-70
2024/03/24 04:05:12;;;;;;;3.07;2.10;;;6.80;99.90;;;;;;5008553;28;20972;-70
2024/03/24 04:07:39;;;;;;;3.03;2.10;;;6.80;99.90;;;;;;5018312;28;20443;-70
2024/03/24 04:10:05;;;;;;;2.50;1.80;;;6.90;99.90;;;;;;5016810;28;20423;-70
2024/03/24 04:12:32;;;;;;;2.43;1.90;;;6.90;99.90;;;;;;5015305;28;20792;-70
2024/03/24 04:15:02;;;;;;;2.20;1.60;;;6.80;99.90;;;;;;5015586;28;20438;-71
2024/03/24 04:17:28;;;;;;;2.20;1.77;;;6.80;99.90;;;;;;5017140;28;20427;-69
2024/03/24 04:19:54;;;;;;;2.93;2.00;;;6.90;99.90;;;;;;5008513;28;20438;-69
2024/03/24 04:22:20;;;;;;;3.40;1.97;;;6.90;99.90;;;;;;5011889;28;20412;-69
2024/03/24 04:24:49;;;;;;;4.27;2.27;;;6.80;99.90;;;;;;5010563;28;20241;-70
2024/03/24 04:27:16;;;;;;;2.77;2.03;;;6.80;99.90;;;;;;5010112;28;20436;-70
2024/03/24 04:29:42;;;;;;;3.30;1.97;;;6.80;99.90;;;;;;5008250;28;20416;-70
2024/03/24 04:32:08;;;;;;;3.73;2.53;;;6.80;99.90;;;;;;5006861;28;20492;-69
2024/03/24 04:34:34;;;;;;;2.93;2.10;;;6.70;99.90;;;;;;5012035;28;20455;-70
2024/03/24 04:36:59;;;;;;;7.60;2.67;;;6.70;99.90;;;;;;5013148;28;20188;-70
2024/03/24 04:39:25;;;;;;;3.60;2.57;;;6.80;99.90;;;;;;5014861;28;20181;-69
2024/03/24 04:41:51;;;;;;;3.70;2.27;;;6.70;99.90;;;;;;5014790;28;20392;-69
2024/03/24 04:44:16;;;;;;;2.60;2.17;;;6.70;99.90;;;;;;5010887;28;20866;-70
2024/03/24 04:46:42;;;;;;;4.40;2.63;;;6.80;99.90;;;;;;5014573;28;20192;-70
2024/03/24 04:49:08;;;;;;;2.70;2.27;;;6.90;99.90;;;;;;5012881;28;20210;-70
2024/03/24 04:51:34;;;;;;;4.77;2.20;;;6.90;99.90;;;;;;5009857;28;20180;-70
2024/03/24 04:54:00;;;;;;;7.30;2.27;;;6.90;99.90;;;;;;5006866;28;20209;-70
2024/03/24 04:56:26;;;;;;;3.90;3.07;;;7.00;99.90;;;;;;5012545;28;20839;-70
2024/03/24 04:58:51;;;;;;;3.67;2.00;;;6.90;99.90;;;;;;5015745;28;20419;-70
2024/03/24 05:01:17;;;;;;;2.70;2.13;;;6.90;99.90;;;;;;5006128;28;20208;-70
2024/03/24 05:03:43;;;;;;;4.73;2.60;;;6.90;99.90;;;;;;5008205;28;20253;-70
2024/03/24 05:06:09;;;;;;;4.73;2.30;;;6.90;99.90;;;;;;5011313;28;20208;-70
2024/03/24 05:08:37;;;;;;;4.80;1.90;;;6.90;99.90;;;;;;5012694;28;21210;-70
2024/03/24 05:11:05;;;;;;;3.47;2.07;;;6.80;99.90;;;;;;5013838;28;20276;-70
2024/03/24 05:13:33;;;;;;;4.33;2.57;;;6.80;99.90;;;;;;5010207;28;20427;-70
2024/03/24 05:15:59;;;;;;;4.97;2.70;;;6.80;99.90;;;;;;5013755;28;20463;-70
2024/03/24 05:18:25;;;;;;;4.00;2.60;;;6.80;99.90;;;;;;5015508;28;20493;-70
2024/03/24 05:20:51;;;;;;;3.27;2.10;;;6.70;99.90;;;;;;5013251;28;20420;-70
2024/03/24 05:23:19;;;;;;;3.53;2.97;;;6.60;99.90;;;;;;5017579;28;20458;-70
2024/03/24 05:25:49;;;;;;;3.17;2.40;;;6.60;99.90;;;;;;5020616;28;20251;-70
2024/03/24 05:28:15;;;;;;;5.00;2.70;;;6.60;99.90;;;;;;5017767;28;20423;-70
2024/03/24 05:30:41;;;;;;;4.17;2.53;;;6.70;99.90;;;;;;5023640;28;20423;-70
2024/03/24 05:33:08;;;;;;;4.17;2.43;;;6.70;99.90;;;;;;5016930;28;20196;-70
2024/03/24 05:35:33;;;;;;;3.60;2.57;;;6.70;99.90;;;;;;5019231;28;20451;-70
2024/03/24 05:37:59;;;;;;;7.07;2.30;;;6.60;99.90;;;;;;5017617;28;20497;-71
2024/03/24 05:40:24;;;;;;;3.10;2.00;;;6.70;99.90;;;;;;5013853;28;20188;-70
2024/03/24 05:42:53;;;;;;;4.50;2.10;;;6.80;99.90;;;;;;5010611;28;20220;-70
2024/03/24 05:45:19;;;;;;;6.90;2.37;;;6.70;99.90;;;;;;5011732;28;20193;-70
2024/03/24 05:47:45;;;;;;;4.10;2.73;;;6.70;99.90;;;;;;5016758;28;20857;-70
2024/03/24 05:50:10;;;;;;;3.60;2.30;;;6.80;99.90;;;;;;5012140;28;20518;-71
2024/03/24 05:52:37;;;;;;;5.73;2.53;;;6.70;99.90;;;;;;5011406;28;20817;-70
2024/03/24 05:55:06;;;;;;;2.60;2.17;;;6.70;99.90;;;;;;5008623;28;21469;-70
2024/03/24 05:57:32;;;;;;;4.73;3.00;;;6.70;99.90;;;;;;5014550;28;20473;-70
2024/03/24 05:59:59;;;;;;;3.60;2.57;;;6.60;99.90;;;;;;5010076;28;20825;-70
2024/03/24 06:02:25;;;;;;;3.70;2.30;;;6.70;99.90;;;;;;5013716;28;20454;-70
2024/03/24 06:04:50;;;;;;;4.13;2.90;;;6.60;99.90;;;;;;5008912;28;20474;-70
2024/03/24 06:07:16;;;;;;;5.13;3.03;;;6.60;99.90;;;;;;5012709;28;20863;-70
2024/03/24 06:09:41;;;;;;;4.80;2.33;;;6.60;99.90;;;;;;5018991;28;20178;-70
2024/03/24 06:12:07;;;;;;;5.30;2.50;;;6.70;99.90;;;;;;5010005;28;20183;-71
2024/03/24 06:14:33;;;;;;;4.20;2.87;;;6.70;99.90;;;;;;5011632;28;20534;-70
2024/03/24 06:16:58;;;;;;;4.40;2.50;;;6.70;99.90;;;;;;5010306;28;20668;-70
2024/03/24 06:19:24;;;;;;;3.97;2.70;;;6.70;99.90;;;;;;5008554;28;20786;-69
2024/03/24 06:21:50;;;;;;;3.60;2.17;;;6.70;99.90;;;;;;5012562;28;20200;-69
2024/03/24 06:24:17;;;;;;;6.20;2.63;;;6.80;99.90;;;;;;5011639;28;20472;-70
2024/03/24 06:26:42;;;;;;;2.77;1.97;;;6.80;99.90;;;;;;5016748;28;20185;-70
2024/03/24 06:29:08;;;;;;;5.80;2.27;;;6.80;99.90;;;;;;5010340;28;20447;-70
2024/03/24 06:31:33;;;;;;;3.80;2.00;;;6.80;99.90;;;;;;5010422;28;20809;-70
2024/03/24 06:34:00;;;;;;;2.50;1.80;;;6.90;99.90;;;;;;5009601;28;20625;-70
2024/03/24 06:36:25;;;;;;;5.03;2.83;;;6.80;99.90;;;;;;5009090;28;20581;-69
2024/03/24 06:38:51;;;;;;;4.60;2.30;;;6.80;99.90;;;;;;5013265;28;20457;-70
2024/03/24 06:41:17;;;;;;;3.47;1.90;;;6.80;99.90;;;;;;5009031;28;20190;-70
2024/03/24 06:43:42;;;;;;;3.30;2.10;;;6.80;99.90;;;;;;5010137;28;20196;-72
2024/03/24 06:46:09;;;;;;;5.10;2.00;;;6.80;99.90;;;;;;5010465;28;20526;-71
2024/03/24 06:48:34;;;;;;;3.40;2.33;;;6.90;99.90;;;;;;5013127;28;20195;-70
2024/03/24 06:51:00;;;;;;;3.00;2.40;;;6.80;99.90;;;;;;5009237;28;20431;-70
2024/03/24 06:53:26;;;;;;;2.93;2.37;;;6.80;99.90;;;;;;5007906;28;20212;-70
2024/03/24 06:55:52;;;;;;;4.93;2.63;;;6.80;99.90;;;;;;5009006;28;20459;-70
2024/03/24 06:58:18;;;;;;;3.43;2.17;;;6.90;99.90;;;;;;5012700;28;20188;-70
2024/03/24 07:00:44;;;;;;;3.70;2.70;;;7.10;99.90;;;;;;5009011;28;20210;-70
2024/03/24 07:03:10;;;;;;;5.40;2.27;;;7.10;99.90;;;;;;5009907;28;20466;-70
2024/03/24 07:05:35;;;;;;;7.30;2.47;;;7.20;99.90;;;;;;5008952;28;20458;-70
2024/03/24 07:08:01;;;;;;;5.67;3.07;;;7.20;99.90;;;;;;5010714;28;20190;-70
2024/03/24 07:10:26;;;;;;;3.50;2.07;;;7.30;99.90;;;;;;5016812;28;20269;-71
2024/03/24 07:12:52;;;;;;;3.10;2.03;;;7.30;99.90;;;;;;5022205;28;20215;-71
2024/03/24 07:15:18;;;;;;;3.17;1.80;;;7.30;99.90;;;;;;5020462;28;20199;-70
2024/03/24 07:17:43;;;;;;;2.37;1.80;;;7.30;99.90;;;;;;5024745;28;20175;-70
2024/03/24 07:20:10;;;;;;;3.13;2.20;;;7.50;99.90;;;;;;5025043;28;20177;-70
2024/03/24 07:22:35;;;;;;;5.60;2.77;;;7.50;99.90;;;;;;5025168;28;20687;-70
2024/03/24 07:25:01;;;;;;;4.37;2.40;;;7.60;99.90;;;;;;5024330;28;20469;-70
2024/03/24 07:27:26;;;;;;;3.00;2.20;;;7.40;99.90;;;;;;5023117;28;20173;-69
2024/03/24 07:29:52;;;;;;;2.57;1.90;;;7.40;99.90;;;;;;5025501;28;20242;-70
2024/03/24 07:32:17;;;;;;;3.70;2.50;;;7.40;99.90;;;;;;5008597;28;20181;-70
2024/03/24 07:34:44;;;;;;;3.33;2.30;;;7.40;99.90;;;;;;5012596;28;20216;-70
2024/03/24 07:37:09;;;;;;;3.87;2.33;;;7.30;99.90;;;;;;5013942;28;20191;-70
2024/03/24 07:39:35;;;;;;;4.70;2.50;;;7.40;99.90;;;;;;5017201;28;20797;-69
2024/03/24 07:42:01;;;;;;;4.83;2.33;;;7.40;99.90;;;;;;5017714;28;20619;-69
2024/03/24 07:44:26;;;;;;;6.03;2.93;;;7.50;99.90;;;;;;5007306;28;20220;-70
2024/03/24 07:46:52;;;;;;;6.20;2.37;;;7.60;99.90;;;;;;5011718;28;20207;-70
2024/03/24 07:49:17;;;;;;;6.23;2.60;;;7.60;99.90;;;;;;5008381;28;20461;-70
2024/03/24 07:51:43;;;;;;;6.10;2.60;;;7.60;99.90;;;;;;5010978;28;20185;-70
2024/03/24 07:54:09;;;;;;;3.10;2.30;;;7.50;99.90;;;;;;5011696;28;20274;-70
2024/03/24 07:56:34;;;;;;;4.30;2.30;;;7.60;99.90;;;;;;5010876;28;20242;-70
2024/03/24 07:59:00;;;;;;;6.13;2.23;;;7.60;99.90;;;;;;5009168;28;20494;-70
2024/03/24 08:01:26;;;;;;;5.27;2.17;;;7.70;99.90;;;;;;5009673;28;20259;-70
2024/03/24 08:03:51;;;;;;;5.50;2.13;;;7.60;99.90;;;;;;5009444;28;20240;-70
2024/03/24 08:06:17;;;;;;;4.17;2.20;;;7.60;99.90;;;;;;5013989;28;20565;-70
2024/03/24 08:08:43;;;;;;;2.70;2.10;;;7.50;99.90;;;;;;5010816;28;20264;-70
2024/03/24 08:11:08;;;;;;;4.77;2.20;;;7.60;99.90;;;;;;5017111;28;20187;-71
2024/03/24 08:13:34;;;;;;;3.10;2.00;;;7.50;99.90;;;;;;5007823;28;20419;-71
2024/03/24 08:16:01;;;;;;;3.97;2.40;;;7.60;99.90;;;;;;5012050;28;20207;-71
2024/03/24 08:18:26;;;;;;;7.13;2.27;;;7.70;99.90;;;;;;5004380;28;20200;-71
2024/03/24 08:20:52;;;;;;;2.73;2.00;;;7.70;99.90;;;;;;5014653;28;20419;-71
2024/03/24 08:23:18;;;;;;;5.43;2.40;;;7.80;99.90;;;;;;5006835;28;20201;-71
2024/03/24 08:25:44;;;;;;;6.33;2.20;;;7.70;99.90;;;;;;5011407;28;20538;-71
2024/03/24 08:28:10;;;;;;;3.30;1.93;;;7.70;99.90;;;;;;5003864;28;21266;-70
2024/03/24 08:30:42;;;;;;;7.50;2.20;;;7.70;99.90;;;;;;5004272;28;21340;-71
2024/03/24 08:33:08;;;;;;;5.70;2.97;;;7.70;99.90;;;;;;5011294;28;20533;-71
2024/03/24 08:35:34;;;;;;;2.87;1.90;;;7.70;99.90;;;;;;5014245;28;20435;-72
2024/03/24 08:38:00;;;;;;;5.87;2.17;;;7.70;99.90;;;;;;5018641;28;20408;-71
2024/03/24 08:40:26;;;;;;;6.80;2.37;;;7.70;99.90;;;;;;5009340;28;20209;-71
2024/03/24 08:42:51;;;;;;;3.83;2.37;;;7.70;99.90;;;;;;5013231;28;20192;-71
2024/03/24 08:45:17;;;;;;;2.77;1.80;;;7.80;99.90;;;;;;5013838;28;20212;-71
2024/03/24 08:47:43;;;;;;;3.23;2.20;;;7.90;99.90;;;;;;5015429;28;20914;-71
2024/03/24 08:50:09;;;;;;;3.17;2.30;;;7.90;99.90;;;;;;5015883;28;20207;-73
2024/03/24 08:52:34;;;;;;;4.57;2.30;;;7.80;99.90;;;;;;5021358;28;20577;-71
2024/03/24 08:55:00;;;;;;;4.70;2.60;;;7.90;99.90;;;;;;5029511;28;20449;-72
2024/03/24 08:57:26;;;;;;;3.50;2.00;;;7.80;99.90;;;;;;5011268;28;20214;-72
2024/03/24 08:59:56;;;;;;;2.57;1.63;;;7.90;99.90;;;;;;5020561;28;20631;-72
2024/03/24 09:02:22;;;;;;;5.20;2.13;;;7.80;99.90;;;;;;5014096;28;20511;-71
2024/03/24 09:04:53;;;;;;;6.57;2.13;;;7.90;99.90;;;;;;5041642;28;20557;-72
2024/03/24 09:07:19;;;;;;;3.40;2.00;;;7.90;99.90;;;;;;5022191;28;20558;-71
2024/03/24 09:09:45;;;;;;;4.03;1.87;;;8.00;99.90;;;;;;5017909;28;20434;-72
2024/03/24 09:12:10;;;;;;;4.80;2.20;;;8.00;99.90;;;;;;5027102;28;20436;-72
2024/03/24 09:14:36;;;;;;;4.27;2.00;;;8.10;99.90;;;;;;5024996;28;20212;-72
2024/03/24 09:17:01;;;;;;;11.57;2.90;;;8.00;99.90;;;;;;5022217;28;20232;-72
2024/03/24 09:19:27;;;;;;;6.40;2.53;;;8.00;99.90;;;;;;5013709;28;20638;-72
2024/03/24 09:21:52;;;;;;;8.70;2.67;;;8.00;99.90;;;;;;5015972;28;20192;-71
2024/03/24 09:24:18;;;;;;;4.43;2.77;;;8.00;99.90;;;;;;5017440;28;20355;-71
2024/03/24 09:26:43;;;;;;;6.73;2.50;;;8.10;99.90;;;;;;5015710;28;20797;-71
2024/03/24 09:29:09;;;;;;;2.90;2.30;;;8.10;99.90;;;;;;5014469;28;20534;-72
2024/03/24 09:31:35;;;;;;;3.97;2.70;;;8.20;99.90;;;;;;5015016;28;20176;-72
2024/03/24 09:34:00;;;;;;;5.83;2.70;;;8.30;99.90;;;;;;5014629;28;20216;-72
2024/03/24 09:36:26;;;;;;;6.00;2.97;;;8.30;99.90;;;;;;5015635;28;20189;-72
2024/03/24 09:38:52;;;;;;;3.80;2.40;;;8.30;99.90;;;;;;5020394;28;20181;-72
2024/03/24 09:41:18;;;;;;;6.00;3.77;;;8.40;99.90;;;;;;5016872;28;20434;-71
2024/03/24 09:43:43;;;;;;;6.03;2.60;;;8.50;99.90;;;;;;5011383;28;20640;-71
2024/03/24 09:46:11;;;;;;;5.70;2.80;;;8.50;99.90;;;;;;5012771;28;21000;-71
2024/03/24 09:48:38;;;;;;;5.80;2.30;;;8.60;99.90;;;;;;5015164;28;20192;-71
2024/03/24 09:51:08;;;;;;;5.70;2.50;;;8.70;99.90;;;;;;5010335;28;20526;-72
2024/03/24 09:53:35;;;;;;;3.23;2.00;;;8.80;99.90;;;;;;5016755;28;20946;-71
2024/03/24 09:56:04;;;;;;;7.60;3.30;;;8.80;99.90;;;;;;5020485;28;20446;-72
2024/03/24 09:58:29;;;;;;;8.50;2.90;;;8.80;99.90;;;;;;5014901;28;20430;-71
2024/03/24 10:00:55;;;;;;;4.93;3.00;;;8.90;99.90;;;;;;5016748;28;20423;-72
2024/03/24 10:03:21;;;;;;;3.93;2.20;;;9.00;99.90;;;;;;5010485;28;20601;-72
2024/03/24 10:05:47;;;;;;;5.97;2.67;;;9.00;99.90;;;;;;5015046;28;20211;-72
2024/03/24 10:08:13;;;;;;;7.53;3.10;;;9.00;99.90;;;;;;5013435;28;20184;-72
2024/03/24 10:10:39;;;;;;;7.50;3.20;;;8.90;99.90;;;;;;5010387;28;20798;-72
2024/03/24 10:13:04;;;;;;;7.07;3.00;;;9.00;99.90;;;;;;5020806;28;20279;-72
2024/03/24 10:15:30;;;;;;;9.27;2.93;;;9.00;99.90;;;;;;5011718;28;20259;-72
2024/03/24 10:18:06;;;;;;;7.30;3.50;;;9.10;99.90;;;;;;5014079;28;20185;-72
2024/03/24 10:20:33;;;;;;;5.60;3.47;;;9.20;99.90;;;;;;5012409;28;20187;-71
2024/03/24 10:22:59;;;;;;;5.90;3.00;;;9.10;99.90;;;;;;5014376;28;20519;-71
2024/03/24 10:25:27;;;;;;;4.10;2.60;;;9.10;99.90;;;;;;5014982;28;20568;-71
2024/03/24 10:27:53;;;;;;;8.37;3.27;;;9.00;99.90;;;;;;5012457;28;20914;-71
2024/03/24 10:30:19;;;;;;;5.33;2.73;;;9.00;99.90;;;;;;5013651;28;20429;-73
2024/03/24 10:32:45;;;;;;;5.03;2.67;;;9.00;99.90;;;;;;5012885;28;20629;-71
2024/03/24 10:35:11;;;;;;;5.23;3.07;;;9.00;99.90;;;;;;5017664;28;20457;-71
2024/03/24 10:37:38;;;;;;;6.20;3.10;;;8.90;99.90;;;;;;5019337;28;20460;-70
2024/03/24 10:40:12;;;;;;;5.23;2.93;;;8.90;99.90;;;;;;5016714;28;20552;-72
2024/03/24 10:42:47;;;;;;;4.57;2.70;;;9.00;99.90;;;;;;5014008;28;20439;-71
2024/03/24 10:45:14;;;;;;;4.70;2.70;;;9.00;99.90;;;;;;5019135;28;20430;-72
2024/03/24 10:47:41;;;;;;;6.30;2.27;;;9.00;99.90;;;;;;5015919;28;20426;-72
2024/03/24 10:50:14;;;;;;;6.90;2.93;;;8.80;99.90;;;;;;5012249;28;20432;-72
2024/03/24 10:52:43;;;;;;;4.63;2.80;;;8.80;99.90;;;;;;5009326;28;20485;-72
2024/03/24 10:55:13;;;;;;;6.37;2.90;;;8.80;99.90;;;;;;5012865;28;20549;-71
2024/03/24 10:57:41;;;;;;;6.63;2.57;;;8.80;99.90;;;;;;5013680;28;20439;-71
2024/03/24 11:00:07;;;;;;;5.43;2.90;;;8.90;99.90;;;;;;5014972;28;20419;-74
2024/03/24 11:02:33;;;;;;;5.10;2.53;;;8.90;99.90;;;;;;5012103;28;20439;-71
2024/03/24 11:05:01;;;;;;;3.47;2.50;;;8.70;99.90;;;;;;5008472;28;20532;-72
2024/03/24 11:07:27;;;;;;;6.63;2.70;;;8.60;99.90;;;;;;5012846;28;20184;-72
2024/03/24 11:09:53;;;;;;;4.90;2.40;;;8.60;99.90;;;;;;5014272;28;20441;-72
2024/03/24 11:12:20;;;;;;;6.27;2.87;;;8.60;99.90;;;;;;5014822;28;20427;-72
2024/03/24 11:14:45;;;;;;;6.43;2.80;;;8.60;99.90;;;;;;5013335;28;20476;-71
2024/03/24 11:17:12;;;;;;;8.37;3.10;;;8.40;99.90;;;;;;5010143;28;20545;-71
2024/03/24 11:19:46;;;;;;;6.83;2.80;;;8.40;99.90;;;;;;5013103;28;20189;-72
2024/03/24 11:22:14;;;;;;;8.80;3.03;;;8.40;99.90;;;;;;5013071;28;20955;-72
2024/03/24 11:24:40;;;;;;;6.97;2.80;;;8.40;99.90;;;;;;5008992;28;20478;-72
2024/03/24 11:27:08;;;;;;;6.60;3.03;;;8.40;99.90;;;;;;5010648;28;20542;-73
2024/03/24 11:29:46;;;;;;;8.10;3.07;;;8.30;99.90;;;;;;5006798;28;20458;-72
2024/03/24 11:32:12;;;;;;;4.27;2.80;;;8.40;99.90;;;;;;5013679;28;20420;-71
2024/03/24 11:34:54;;;;;;;5.03;2.97;;;8.40;99.90;;;;;;5013477;28;20550;-70
2024/03/24 11:37:20;;;;;;;8.00;3.47;;;8.40;99.90;;;;;;5016282;28;20443;-69
2024/03/24 11:39:47;;;;;;;6.50;3.40;;;8.10;99.90;;;;;;5011584;28;20431;-72
2024/03/24 11:42:13;;;;;;;12.33;3.17;;;8.10;99.90;;;;;;5015614;28;20532;-69
2024/03/24 11:44:42;;;;;;;13.33;3.23;;;8.10;99.90;;;;;;5010262;28;20475;-69
2024/03/24 11:47:07;;;;;;;7.20;2.90;;;8.10;99.90;;;;;;5015310;28;20419;-70
2024/03/24 11:49:54;;;;;;;7.83;3.40;;;8.20;99.90;;;;;;5010152;28;20419;-71
2024/03/24 11:52:20;;;;;;;8.03;3.70;;;8.10;99.90;;;;;;5014440;28;20185;-71
2024/03/24 11:54:47;;;;;;;7.60;3.73;;;8.10;99.90;;;;;;5014632;28;20440;-69
2024/03/24 11:57:12;;;;;;;7.57;3.33;;;8.10;99.90;;;;;;5011380;28;20181;-69
2024/03/24 11:59:38;;;;;;;12.13;4.03;;;8.20;99.90;;;;;;5016205;28;20433;-69
2024/03/24 12:02:05;;;;;;;6.30;3.53;;;8.10;99.90;;;;;;5019355;28;20185;-69
2024/03/24 12:04:32;;;;;;;9.77;3.90;;;8.10;99.90;;;;;;5011876;28;20211;-69
2024/03/24 12:06:59;;;;;;;7.87;3.43;;;8.00;99.90;;;;;;5015267;28;20927;-69
2024/03/24 12:09:27;;;;;;;5.83;3.83;;;8.10;99.90;;;;;;5015620;28;20463;-69
2024/03/24 12:11:54;;;;;;;5.47;3.40;;;8.30;99.90;;;;;;5017104;28;20422;-69
2024/03/24 12:14:23;;;;;;;8.43;3.50;;;8.20;99.90;;;;;;5014181;28;20482;-70
2024/03/24 12:17:01;;;;;;;8.40;3.70;;;8.10;99.90;;;;;;5013369;28;20451;-68
2024/03/24 12:19:27;;;;;;;7.30;2.80;;;8.00;99.90;;;;;;5011137;28;20419;-68
2024/03/24 12:21:53;;;;;;;7.43;3.37;;;7.90;99.90;;;;;;5014228;28;20462;-67
2024/03/24 12:24:18;;;;;;;5.70;3.03;;;7.90;99.90;;;;;;5016310;28;20645;-69
2024/03/24 12:26:44;;;;;;;4.57;3.40;;;7.90;99.90;;;;;;5010324;28;20971;-68
2024/03/24 12:29:17;;;;;;;4.83;2.37;;;8.10;99.90;;;;;;5014336;28;20271;-67
2024/03/24 12:31:43;;;;;;;3.40;2.30;;;7.90;99.90;;;;;;5013099;28;20459;-67
2024/03/24 12:34:11;;;;;;;3.80;2.50;;;8.10;99.90;;;;;;5014277;28;20443;-67
2024/03/24 12:36:36;;;;;;;6.80;3.10;;;8.30;99.90;;;;;;5016715;28;20439;-67
2024/03/24 12:39:02;;;;;;;5.67;3.40;;;8.80;99.90;;;;;;5016468;28;20436;-67
2024/03/24 12:41:28;;;;;;;4.23;2.30;;;10.10;99.90;;;;;;5018671;28;20180;-68
2024/03/24 12:43:56;;;;;;;6.20;2.87;;;11.60;99.90;;;;;;5012970;28;20570;-68
2024/03/24 12:46:26;;;;;;;4.97;3.27;;;12.70;99.90;;;;;;5016785;28;20206;-68
2024/03/24 12:48:52;;;;;;;5.57;2.90;;;12.90;99.90;;;;;;5017918;28;20416;-67
2024/03/24 12:51:17;;;;;;;4.80;2.73;;;12.60;99.90;;;;;;5017517;28;20787;-67
2024/03/24 12:54:00;;;;;;;5.07;2.60;;;12.20;99.90;;;;;;5016628;28;20419;-68